createdAt,value
2023-01-23T00:02:10.993Z,9.67
2023-01-23T00:04:37.971Z,9.62
2023-01-23T00:07:04.895Z,9.57
2023-01-23T00:09:31.934Z,9.55
2023-01-23T00:12:00.275Z,9.49
2023-01-23T00:14:27.319Z,9.45
2023-01-23T00:16:54.222Z,9.45
2023-01-23T00:19:21.195Z,9.44
2023-01-23T00:21:48.178Z,9.44
2023-01-23T00:24:15.115Z,9.43
2023-01-23T00:26:42.108Z,9.41
2023-01-23T00:29:10.455Z,9.42
2023-01-23T00:31:39.633Z,9.43
2023-01-23T00:34:11.369Z,9.42
2023-01-23T00:36:39.985Z,9.43
2023-01-23T00:39:14.980Z,9.45
2023-01-23T00:41:44.158Z,9.43
2023-01-23T00:44:12.538Z,9.45
2023-01-23T00:46:39.735Z,9.48
2023-01-23T00:49:07.670Z,9.47
2023-01-23T00:51:35.003Z,9.47
2023-01-23T00:54:03.172Z,9.46
2023-01-23T00:56:30.616Z,9.48
2023-01-23T00:58:57.522Z,9.52
2023-01-23T01:01:26.214Z,9.50
2023-01-23T01:03:53.354Z,9.52
2023-01-23T01:06:20.449Z,9.51
2023-01-23T01:08:47.834Z,9.50
2023-01-23T01:11:15.017Z,9.47
2023-01-23T01:13:42.443Z,9.46
2023-01-23T01:16:10.044Z,9.47
2023-01-23T01:18:38.497Z,9.45
2023-01-23T01:21:07.767Z,9.46
2023-01-23T01:23:35.233Z,9.48
2023-01-23T01:26:02.711Z,9.40
2023-01-23T01:28:30.870Z,9.34
2023-01-23T01:30:58.291Z,9.40
2023-01-23T01:33:28.367Z,9.43
2023-01-23T01:35:57.718Z,9.41
2023-01-23T01:38:24.683Z,9.41
2023-01-23T01:40:51.658Z,9.42
2023-01-23T01:43:20.744Z,9.44
2023-01-23T01:46:06.951Z,9.43
2023-01-23T01:48:38.293Z,9.40
2023-01-23T01:51:12.537Z,9.36
2023-01-23T01:53:40.605Z,9.44
2023-01-23T01:56:11.942Z,9.42
2023-01-23T01:58:40.134Z,9.41
2023-01-23T02:01:07.201Z,9.39
2023-01-23T02:03:35.235Z,9.37
2023-01-23T02:06:02.595Z,9.39
2023-01-23T02:08:37.231Z,9.38
2023-01-23T02:11:05.263Z,9.37
2023-01-23T02:13:36.828Z,9.32
2023-01-23T02:16:06.467Z,9.31
2023-01-23T02:18:35.976Z,9.27
2023-01-23T02:21:06.503Z,9.24
2023-01-23T02:23:56.929Z,9.14
2023-01-23T02:26:32.872Z,9.05
2023-01-23T02:29:00.334Z,9.00
2023-01-23T02:31:32.487Z,8.95
2023-01-23T02:34:00.261Z,8.88
2023-01-23T02:36:30.322Z,8.88
2023-01-23T02:39:06.371Z,8.90
2023-01-23T02:41:37.961Z,8.91
2023-01-23T02:44:09.671Z,8.94
2023-01-23T02:46:37.947Z,8.92
2023-01-23T02:49:05.056Z,8.94
2023-01-23T02:51:32.580Z,8.96
2023-01-23T02:53:59.719Z,9.01
2023-01-23T02:56:26.730Z,9.00
2023-01-23T02:59:13.714Z,8.99
2023-01-23T03:01:40.644Z,8.98
2023-01-23T03:04:08.599Z,8.90
2023-01-23T03:06:37.646Z,8.85
2023-01-23T03:09:08.075Z,8.86
2023-01-23T03:11:36.357Z,8.79
2023-01-23T03:14:07.799Z,8.77
2023-01-23T03:16:38.315Z,8.77
2023-01-23T03:19:09.080Z,8.78
2023-01-23T03:21:38.126Z,8.73
2023-01-23T03:24:05.935Z,8.71
2023-01-23T03:26:33.042Z,8.76
2023-01-23T03:29:18.715Z,8.74
2023-01-23T03:31:47.254Z,8.68
2023-01-23T03:34:14.671Z,8.73
2023-01-23T03:36:41.874Z,8.69
2023-01-23T03:39:28.465Z,8.68
2023-01-23T03:41:55.807Z,8.67
2023-01-23T03:44:25.400Z,8.64
2023-01-23T03:46:54.644Z,8.60
2023-01-23T03:49:23.232Z,8.57
2023-01-23T03:51:56.980Z,8.52
2023-01-23T03:54:24.088Z,8.53
2023-01-23T03:56:51.794Z,8.59
2023-01-23T03:59:37.128Z,8.54
2023-01-23T04:02:05.799Z,8.47
2023-01-23T04:04:34.508Z,8.48
2023-01-23T04:07:03.522Z,8.47
2023-01-23T04:09:31.608Z,8.39
2023-01-23T04:11:59.402Z,8.36
2023-01-23T04:14:30.506Z,8.39
2023-01-23T04:16:59.321Z,8.36
2023-01-23T04:19:27.671Z,8.32
2023-01-23T04:21:54.656Z,8.34
2023-01-23T04:24:21.660Z,8.36
2023-01-23T04:26:48.595Z,8.40
2023-01-23T04:29:17.213Z,8.39
2023-01-23T04:31:44.686Z,8.39
2023-01-23T04:34:13.255Z,8.35
2023-01-23T04:36:43.167Z,8.32
2023-01-23T04:39:10.203Z,8.32
2023-01-23T04:41:39.209Z,8.31
2023-01-23T04:44:23.007Z,8.27
2023-01-23T04:47:09.375Z,8.27
2023-01-23T04:49:36.530Z,8.28
2023-01-23T04:52:05.075Z,8.27
2023-01-23T04:54:36.536Z,8.20
2023-01-23T04:57:04.921Z,8.19
2023-01-23T04:59:33.381Z,8.20
2023-01-23T05:02:02.347Z,8.16
2023-01-23T05:04:36.346Z,8.17
2023-01-23T05:07:05.171Z,8.21
2023-01-23T05:09:38.171Z,8.20
2023-01-23T05:12:05.742Z,8.10
2023-01-23T05:14:35.614Z,8.11
2023-01-23T05:17:02.628Z,8.12
2023-01-23T05:19:34.003Z,8.12
2023-01-23T05:22:04.791Z,8.13
2023-01-23T05:24:31.748Z,8.06
2023-01-23T05:26:59.156Z,8.00
2023-01-23T05:29:29.614Z,7.95
2023-01-23T05:32:09.094Z,7.90
2023-01-23T05:34:41.298Z,7.93
2023-01-23T05:37:20.473Z,7.91
2023-01-23T05:39:51.642Z,7.86
2023-01-23T05:42:19.736Z,7.85
2023-01-23T05:44:49.294Z,7.88
2023-01-23T05:47:28.438Z,7.86
2023-01-23T05:49:56.676Z,7.79
2023-01-23T05:52:28.837Z,7.80
2023-01-23T05:54:56.373Z,7.81
2023-01-23T05:57:23.437Z,7.77
2023-01-23T06:00:16.255Z,7.85
2023-01-23T06:02:50.242Z,7.78
2023-01-23T06:05:37.922Z,7.75
2023-01-23T06:08:15.094Z,7.75
2023-01-23T06:10:42.742Z,7.69
2023-01-23T06:13:09.728Z,7.65
2023-01-23T06:15:37.362Z,7.63
2023-01-23T06:18:09.219Z,7.56
2023-01-23T06:20:36.211Z,7.51
2023-01-23T06:23:03.561Z,7.53
2023-01-23T06:25:31.967Z,7.47
2023-01-23T06:28:02.281Z,7.47
2023-01-23T06:30:31.960Z,7.37
2023-01-23T06:32:59.735Z,7.39
2023-01-23T06:35:33.813Z,7.31
2023-01-23T06:38:01.708Z,7.31
2023-01-23T06:40:29.094Z,7.26
2023-01-23T06:43:17.617Z,7.27
2023-01-23T06:45:45.310Z,7.30
2023-01-23T06:48:12.908Z,7.31
2023-01-23T06:50:42.204Z,7.23
2023-01-23T06:53:11.870Z,7.19
2023-01-23T06:55:38.992Z,7.17
2023-01-23T06:58:06.037Z,7.08
2023-01-23T07:00:34.489Z,7.09
2023-01-23T07:03:03.897Z,7.06
2023-01-23T07:05:31.849Z,7.09
2023-01-23T07:07:58.777Z,7.04
2023-01-23T07:10:26.465Z,7.09
2023-01-23T07:12:53.497Z,7.10
2023-01-23T07:15:20.644Z,7.18
2023-01-23T07:17:50.118Z,7.22
2023-01-23T07:20:17.398Z,7.21
2023-01-23T07:22:51.064Z,7.25
2023-01-23T07:25:18.154Z,7.28
2023-01-23T07:27:45.123Z,7.30
2023-01-23T07:30:12.713Z,7.33
2023-01-23T07:32:39.642Z,7.35
2023-01-23T07:35:09.588Z,7.36
2023-01-23T07:37:36.619Z,7.36
2023-01-23T07:40:04.033Z,7.43
2023-01-23T07:42:31.059Z,7.46
2023-01-23T07:44:57.955Z,7.55
2023-01-23T07:47:24.990Z,7.57
2023-01-23T07:49:51.925Z,7.52
2023-01-23T07:52:20.310Z,7.50
2023-01-23T07:54:47.249Z,7.46
2023-01-23T07:57:14.151Z,7.50
2023-01-23T07:59:41.072Z,7.54
2023-01-23T08:02:09.634Z,7.53
2023-01-23T08:04:37.241Z,7.48
2023-01-23T08:07:04.672Z,7.50
2023-01-23T08:09:32.991Z,7.39
2023-01-23T08:11:59.945Z,7.32
2023-01-23T08:14:27.012Z,7.32
2023-01-23T08:16:54.646Z,7.25
2023-01-23T08:19:21.660Z,7.32
2023-01-23T08:21:48.594Z,7.36
2023-01-23T08:24:15.507Z,7.36
2023-01-23T08:26:43.819Z,7.38
2023-01-23T08:29:11.679Z,7.39
2023-01-23T08:31:38.755Z,7.48
2023-01-23T08:34:06.034Z,7.33
2023-01-23T08:36:33.191Z,7.32
2023-01-23T08:39:00.478Z,7.33
2023-01-23T08:41:27.445Z,7.37
2023-01-23T08:43:57.586Z,7.30
2023-01-23T08:46:24.572Z,7.27
2023-01-23T08:48:51.467Z,7.31
2023-01-23T08:51:19.085Z,7.29
2023-01-23T08:53:46.043Z,7.25
2023-01-23T08:56:16.964Z,7.22
2023-01-23T08:58:44.504Z,7.23
2023-01-23T09:01:13.797Z,7.22
2023-01-23T09:03:40.773Z,7.18
2023-01-23T09:06:09.969Z,7.24
2023-01-23T09:08:36.898Z,7.23
2023-01-23T09:11:05.711Z,7.23
2023-01-23T09:13:33.027Z,7.25
2023-01-23T09:16:00.385Z,7.21
2023-01-23T09:18:28.963Z,7.24
2023-01-23T09:20:56.109Z,7.26
2023-01-23T09:23:23.667Z,7.22
2023-01-23T09:25:52.013Z,7.17
2023-01-23T09:28:18.935Z,7.15
2023-01-23T09:30:45.962Z,7.11
2023-01-23T09:33:16.541Z,7.09
2023-01-23T09:35:46.284Z,7.05
2023-01-23T09:38:13.614Z,6.98
2023-01-23T09:40:49.263Z,7.00
2023-01-23T09:43:23.135Z,7.02
2023-01-23T09:45:59.074Z,6.98
2023-01-23T09:48:30.660Z,7.00
2023-01-23T09:51:05.567Z,6.91
2023-01-23T09:53:37.294Z,6.85
2023-01-23T09:56:10.714Z,6.77
2023-01-23T09:58:41.397Z,6.78
2023-01-23T10:01:12.120Z,6.77
2023-01-23T10:03:39.626Z,6.76
2023-01-23T10:06:20.944Z,6.74
2023-01-23T10:09:01.217Z,6.71
2023-01-23T10:11:36.463Z,6.72
2023-01-23T10:14:21.015Z,6.79
2023-01-23T10:17:06.352Z,6.83
2023-01-23T10:19:51.402Z,6.78
2023-01-23T10:22:34.506Z,6.77
2023-01-23T10:25:09.886Z,6.71
2023-01-23T10:27:41.575Z,6.78
2023-01-23T10:30:19.673Z,6.75
2023-01-23T10:32:51.304Z,6.79
2023-01-23T10:35:22.750Z,6.83
2023-01-23T10:38:01.802Z,6.81
2023-01-23T10:40:47.635Z,6.83
2023-01-23T10:43:16.716Z,6.85
2023-01-23T10:45:45.389Z,6.75
2023-01-23T10:48:29.495Z,6.81
2023-01-23T10:50:56.594Z,6.81
2023-01-23T10:53:25.888Z,6.88
2023-01-23T10:55:57.007Z,6.93
2023-01-23T10:58:31.813Z,6.93
2023-01-23T11:00:59.749Z,6.92
2023-01-23T11:03:29.611Z,6.98
2023-01-23T11:06:01.096Z,6.98
2023-01-23T11:08:32.075Z,7.02
2023-01-23T11:11:29.194Z,6.97
2023-01-23T11:14:14.293Z,6.94
2023-01-23T11:16:41.378Z,6.97
2023-01-23T11:19:23.131Z,7.04
2023-01-23T11:21:55.992Z,6.99
2023-01-23T11:24:39.639Z,6.98
2023-01-23T11:27:18.960Z,6.91
2023-01-23T11:30:01.337Z,6.92
2023-01-23T11:32:30.915Z,6.94
2023-01-23T11:35:10.905Z,6.95
2023-01-23T11:37:40.993Z,6.90
2023-01-23T11:40:13.737Z,6.88
2023-01-23T11:42:42.833Z,6.88
2023-01-23T11:45:14.969Z,6.81
2023-01-23T11:47:55.409Z,6.84
2023-01-23T11:50:41.087Z,6.82
2023-01-23T11:53:30.681Z,6.82
2023-01-23T11:56:34.069Z,6.82
2023-01-23T11:59:31.632Z,6.82
2023-01-23T12:02:21.753Z,6.86
2023-01-23T12:05:05.913Z,6.86
2023-01-23T12:07:41.454Z,6.86
2023-01-23T12:10:17.962Z,6.84
2023-01-23T12:13:04.876Z,6.88
2023-01-23T12:15:42.964Z,6.91
2023-01-23T12:18:22.079Z,6.87
2023-01-23T12:20:56.677Z,6.89
2023-01-23T12:23:37.766Z,6.88
2023-01-23T12:26:13.824Z,6.93
2023-01-23T12:29:00.387Z,6.92
2023-01-23T12:31:43.570Z,6.90
2023-01-23T12:34:28.264Z,6.82
2023-01-23T12:37:30.734Z,6.79
2023-01-23T12:40:08.666Z,6.89
2023-01-23T12:42:41.514Z,6.92
2023-01-23T12:45:21.884Z,6.98
2023-01-23T12:47:55.503Z,7.00
2023-01-23T12:50:28.997Z,7.01
2023-01-23T12:53:00.600Z,7.03
2023-01-23T12:55:33.016Z,7.02
2023-01-23T12:58:09.030Z,7.00
2023-01-23T13:00:52.040Z,7.00
2023-01-23T13:03:44.875Z,7.02
2023-01-23T13:06:34.949Z,6.97
2023-01-23T13:09:18.475Z,6.89
2023-01-23T13:11:56.107Z,6.88
2023-01-23T13:14:27.088Z,6.90
2023-01-23T13:17:02.974Z,6.91
2023-01-23T13:19:50.795Z,6.87
2023-01-23T13:22:29.027Z,6.88
2023-01-23T13:25:12.527Z,6.77
2023-01-23T13:27:49.498Z,6.73
2023-01-23T13:30:59.330Z,6.68
2023-01-23T13:33:58.691Z,6.68
2023-01-23T13:36:33.827Z,6.65
2023-01-23T13:39:24.441Z,6.66
2023-01-23T13:42:43.065Z,6.61
2023-01-23T13:45:28.726Z,6.54
2023-01-23T14:23:27.349Z,6.22
2023-01-23T14:25:56.164Z,6.23
2023-01-23T14:28:23.234Z,6.25
2023-01-23T14:30:54.492Z,6.29
2023-01-23T14:33:21.757Z,6.26
2023-01-23T14:35:49.216Z,6.25
2023-01-23T14:38:23.407Z,6.18
2023-01-23T14:40:51.392Z,6.13
2023-01-23T14:43:22.662Z,6.07
2023-01-23T14:45:57.927Z,6.05
2023-01-23T14:48:24.948Z,6.05
2023-01-23T14:51:02.101Z,6.00
2023-01-23T14:53:29.172Z,5.97
2023-01-23T14:55:59.900Z,5.93
2023-01-23T14:58:28.889Z,5.92
2023-01-23T15:00:57.001Z,5.86
2023-01-23T15:03:41.954Z,5.92
2023-01-23T15:06:13.283Z,5.90
2023-01-23T15:08:41.507Z,5.92
2023-01-23T15:11:12.077Z,5.89
2023-01-23T15:13:47.430Z,5.88
2023-01-23T15:16:18.967Z,5.89
2023-01-23T15:18:53.778Z,5.89
2023-01-23T15:21:28.175Z,5.79
2023-01-23T15:24:17.313Z,5.77
2023-01-23T15:26:45.737Z,5.73
2023-01-23T15:29:21.071Z,5.65
2023-01-23T15:31:50.208Z,5.65
2023-01-23T15:34:30.678Z,5.64
2023-01-23T15:37:01.891Z,5.56
2023-01-23T15:39:30.856Z,5.57
2023-01-23T15:41:59.970Z,5.59
2023-01-23T15:44:30.358Z,5.61
2023-01-23T15:47:01.041Z,5.61
2023-01-23T15:49:28.356Z,5.62
2023-01-23T15:51:56.426Z,5.62
2023-01-23T15:54:28.302Z,5.68
2023-01-23T15:57:06.597Z,5.59
2023-01-23T15:59:36.668Z,5.57
2023-01-23T16:02:04.114Z,5.59
2023-01-23T16:04:31.120Z,5.61
2023-01-23T16:07:00.285Z,5.61
2023-01-23T16:09:31.433Z,5.61
2023-01-23T16:11:59.903Z,5.61
2023-01-23T16:14:27.076Z,5.65
2023-01-23T16:16:58.273Z,5.62
2023-01-23T16:19:31.594Z,5.55
2023-01-23T16:22:04.519Z,5.56
2023-01-23T16:24:37.468Z,5.57
2023-01-23T16:27:04.798Z,5.48
2023-01-23T16:29:33.164Z,5.44
2023-01-23T16:32:03.298Z,5.40
2023-01-23T16:34:30.372Z,5.39
2023-01-23T16:36:59.408Z,5.41
2023-01-23T16:39:29.635Z,5.44
2023-01-23T16:41:56.736Z,5.38
2023-01-23T16:44:24.100Z,5.38
2023-01-23T16:46:52.226Z,5.35
2023-01-23T16:49:21.134Z,5.35
2023-01-23T16:51:56.503Z,5.29
2023-01-23T16:54:23.711Z,5.25
2023-01-23T16:56:51.679Z,5.19
2023-01-23T16:59:26.409Z,5.14
2023-01-23T17:01:53.735Z,5.10
2023-01-23T17:04:22.568Z,5.10
2023-01-23T17:06:50.145Z,5.08
2023-01-23T17:09:17.739Z,5.05
2023-01-23T17:11:48.618Z,5.08
2023-01-23T17:14:17.818Z,5.07
2023-01-23T17:16:47.182Z,5.09
2023-01-23T17:19:21.263Z,5.03
2023-01-23T17:21:50.148Z,5.05
2023-01-23T17:24:17.797Z,5.09
2023-01-23T17:26:45.272Z,5.10
2023-01-23T17:29:12.538Z,5.09
2023-01-23T17:31:39.819Z,5.11
2023-01-23T17:34:10.773Z,5.14
2023-01-23T17:36:37.770Z,5.13
2023-01-23T17:39:08.632Z,5.13
2023-01-23T17:41:35.604Z,5.12
2023-01-23T17:44:02.584Z,5.10
2023-01-23T17:46:32.698Z,5.07
2023-01-23T17:49:00.057Z,5.01
2023-01-23T17:51:27.105Z,4.94
2023-01-23T17:53:55.053Z,4.88
2023-01-23T17:56:23.416Z,4.81
2023-01-23T17:58:50.504Z,4.76
2023-01-23T18:01:19.943Z,4.69
2023-01-23T18:03:46.983Z,4.65
2023-01-23T18:06:14.459Z,4.65
2023-01-23T18:08:42.381Z,4.60
2023-01-23T18:11:17.963Z,4.58
2023-01-23T18:13:58.341Z,4.58
2023-01-23T18:16:31.441Z,4.57
2023-01-23T18:19:01.389Z,4.50
2023-01-23T18:21:29.492Z,4.56
2023-01-23T18:23:57.675Z,4.57
2023-01-23T18:26:43.668Z,4.49
2023-01-23T18:29:24.390Z,4.50
2023-01-23T18:32:34.427Z,4.48
2023-01-23T18:35:08.187Z,4.46
2023-01-23T18:37:45.345Z,4.40
2023-01-23T18:40:17.441Z,4.40
2023-01-23T18:42:54.939Z,4.43
2023-01-23T18:45:27.643Z,4.43
2023-01-23T18:47:55.981Z,4.42
2023-01-23T18:50:25.310Z,4.38
2023-01-23T18:53:07.184Z,4.44
2023-01-23T18:55:40.892Z,4.41
2023-01-23T18:58:29.891Z,4.33
2023-01-23T19:01:15.051Z,4.33
2023-01-23T19:03:46.158Z,4.27
2023-01-23T19:06:20.460Z,4.30
2023-01-23T19:08:50.589Z,4.24
2023-01-23T19:11:32.834Z,4.14
2023-01-23T19:14:12.450Z,4.21
2023-01-23T19:16:45.724Z,4.13
2023-01-23T19:19:21.736Z,4.11
2023-01-23T19:21:49.440Z,4.14
2023-01-23T19:24:19.562Z,4.15
2023-01-23T19:26:48.562Z,4.14
2023-01-23T19:29:22.733Z,4.17
2023-01-23T19:32:07.225Z,4.19
2023-01-23T19:34:36.022Z,4.21
2023-01-23T19:37:04.393Z,4.12
2023-01-23T19:39:32.694Z,4.08
2023-01-23T19:42:01.873Z,4.01
2023-01-23T19:44:31.254Z,4.06
2023-01-23T19:47:00.077Z,4.08
2023-01-23T19:49:27.297Z,4.10
2023-01-23T19:51:54.281Z,4.08
2023-01-23T19:54:24.377Z,4.01
2023-01-23T19:56:51.533Z,4.06
2023-01-23T19:59:20.142Z,4.00
2023-01-23T20:01:50.450Z,4.00
2023-01-23T20:04:21.291Z,3.94
2023-01-23T20:06:55.377Z,3.87
2023-01-23T20:09:22.848Z,3.88
2023-01-23T20:11:50.906Z,3.87
2023-01-23T20:14:18.645Z,3.81
2023-01-23T20:16:45.851Z,3.76
2023-01-23T20:19:15.239Z,3.76
2023-01-23T20:21:45.114Z,3.76
2023-01-23T20:24:13.353Z,3.68
2023-01-23T20:26:41.266Z,3.69
2023-01-23T20:29:09.517Z,3.69
2023-01-23T20:31:37.625Z,3.72
2023-01-23T20:34:04.808Z,3.77
2023-01-23T20:36:31.785Z,3.73
2023-01-23T20:39:00.223Z,3.71
2023-01-23T20:41:27.699Z,3.66
2023-01-23T20:43:54.676Z,3.66
2023-01-23T20:46:21.761Z,3.66
2023-01-23T20:48:48.884Z,3.62
2023-01-23T20:51:16.737Z,3.67
2023-01-23T20:53:44.535Z,3.68
2023-01-23T20:56:14.721Z,3.65
2023-01-23T20:59:02.251Z,3.63
2023-01-23T21:01:30.999Z,3.57
2023-01-23T21:03:58.325Z,3.50
2023-01-23T21:06:25.356Z,3.45
2023-01-23T21:08:52.289Z,3.47
2023-01-23T21:11:20.947Z,3.47
2023-01-23T21:13:51.782Z,3.46
2023-01-23T21:16:19.519Z,3.51
2023-01-23T21:18:47.098Z,3.55
2023-01-23T21:21:15.848Z,3.56
2023-01-23T21:23:43.483Z,3.51
2023-01-23T21:26:10.409Z,3.54
2023-01-23T21:28:41.297Z,3.56
2023-01-23T21:31:09.673Z,3.57
2023-01-23T21:33:36.979Z,3.61
2023-01-23T21:36:04.386Z,3.50
2023-01-23T21:38:31.326Z,3.50
2023-01-23T21:40:58.350Z,3.50
2023-01-23T21:43:25.609Z,3.54
2023-01-23T21:45:53.950Z,3.52
2023-01-23T21:48:21.891Z,3.51
2023-01-23T21:50:48.792Z,3.46
2023-01-23T21:53:15.774Z,3.42
2023-01-23T21:55:42.678Z,3.43
2023-01-23T21:58:09.600Z,3.40
2023-01-23T22:00:55.370Z,3.25
2023-01-23T22:03:23.737Z,3.23
2023-01-23T22:05:50.701Z,3.28
2023-01-23T22:08:18.011Z,3.25
2023-01-23T22:10:44.902Z,3.17
2023-01-23T22:13:11.850Z,3.19
2023-01-23T22:15:39.219Z,3.21
2023-01-23T22:18:06.231Z,3.26
2023-01-23T22:20:37.160Z,3.32
2023-01-23T22:23:04.228Z,3.31
2023-01-23T22:25:31.458Z,3.37
2023-01-23T22:27:58.478Z,3.33
2023-01-23T22:30:25.966Z,3.24
2023-01-23T22:32:52.883Z,3.14
2023-01-23T22:35:20.059Z,3.11
2023-01-23T22:37:48.604Z,3.12
2023-01-23T22:40:15.855Z,3.13
2023-01-23T22:42:42.772Z,3.13
2023-01-23T22:45:10.809Z,3.14
2023-01-23T22:47:37.707Z,3.08
2023-01-23T22:50:05.367Z,2.95
2023-01-23T22:52:32.332Z,2.93
2023-01-23T22:55:00.619Z,2.92
2023-01-23T22:57:27.731Z,2.88
2023-01-23T22:59:54.646Z,2.87
2023-01-23T23:02:21.543Z,2.85
2023-01-23T23:04:49.982Z,2.82
2023-01-23T23:07:16.935Z,2.76
2023-01-23T23:09:44.490Z,2.79
2023-01-23T23:12:13.505Z,2.84
2023-01-23T23:14:40.480Z,2.87
2023-01-23T23:17:07.479Z,2.81
2023-01-23T23:19:34.543Z,2.79
2023-01-23T23:22:01.442Z,2.75
2023-01-23T23:24:28.382Z,2.75
2023-01-23T23:26:55.394Z,2.76
2023-01-23T23:29:23.882Z,2.72
2023-01-23T23:31:52.111Z,2.75
2023-01-23T23:34:19.356Z,2.82
2023-01-23T23:36:46.358Z,2.90
2023-01-23T23:39:13.365Z,2.99
2023-01-23T23:41:40.307Z,3.01
2023-01-23T23:44:07.210Z,3.05
2023-01-23T23:46:35.514Z,3.08
2023-01-23T23:49:02.645Z,2.99
2023-01-23T23:51:29.560Z,2.86
2023-01-23T23:53:56.556Z,2.75
2023-01-23T23:56:26.086Z,2.69
2023-01-23T23:58:53.863Z,2.62
